• Join FlightAware (Why Join?)
  • Login
  • US Flag 
03:11PM EDT


 

Airport Tracker/Info


-or-


 

Live Flight TrackerFlight Track Log ✈ AWE4688 ✈ 17-Dec-2013 ✈ KPHL - KMHT

Flight Track Log - Related Links

Times and Time Zones

All times are in EST time to prevent confusion due to time zone crossing. See the AWE4688 flight status page for this flight to view local times or setup timezone preferences in your user account.

Time Position Orientation Groundspeed Altitude Reporting Facility
EST Latitude Longitude Course Direction KTS MPH feet Rate Location/Type
12:09PM 39.8833 -75.2167 37° Northeast 178 205 1,000  Level Philadelphia TRACON
12:10PM 39.8833 -75.1167 90° East 232 267 4,100 2,340 Climbing Philadelphia TRACON
12:12PM 40.1102 -74.9627 37° Northeast  Level Estimated
12:12PM 39.8450 -74.9697 109° East 280 322 7,600  Level New York Center
12:13PM 40.1894 -74.8695 37° Northeast  Level Estimated
12:13PM 39.8236 -74.8658 105° East 297 342 9,800  Level New York Center
12:14PM 40.2685 -74.7762 37° Northeast  Level Estimated
12:14PM 39.8044 -74.7592 103° East 308 354 11,600  Level New York Center
12:15PM 39.8556 -74.6594 56° Northeast 300 345 13,500 1,800 Climbing New York Center
12:16PM 39.9356 -74.5772 38° Northeast 317 365 15,300 1,800 Climbing New York Center
12:17PM 40.0194 -74.4950 37° Northeast 340 391 17,100 1,620 Climbing New York Center
12:18PM 40.1053 -74.4128 36° Northeast 379 436 18,600 1,500 Climbing New York Center
12:19PM 40.1936 -74.3222 38° Northeast 390 449 20,100 1,500 Climbing New York Center
12:20PM 40.2875 -74.2483 31° Northeast 395 455 21,700 1,500 Climbing New York Center
12:21PM 40.3836 -74.1686 32° Northeast 400 460 23,100 1,200 Climbing New York Center
12:22PM 40.4836 -74.0917 30° Northeast 400 460 24,200 1,020 Climbing New York Center
12:23PM 40.5817 -74.0119 32° Northeast 406 467 25,200 900 Climbing New York Center
12:24PM 40.6861 -73.9264 32° Northeast 425 489 26,100 840 Climbing New York Center
12:26PM 40.8756 -73.7781 31° Northeast 445 512 27,700 900 Climbing Boston Center
12:27PM 40.9814 -73.6931 31° Northeast 445 512 28,700 780 Climbing Boston Center
12:28PM 41.0875 -73.6100 31° Northeast 445 512 29,400 480 Climbing Boston Center
12:29PM 41.2011 -73.5950 North 417 480 29,800 420 Climbing Boston Center
12:30PM 41.3114 -73.6189 351° North 404 465 30,300 540 Climbing Boston Center
12:31PM 41.4472 -73.6397 353° North 409 471 30,900 540 Climbing Boston Center
12:32PM 41.5453 -73.6542 354° North 411 473 31,400 480 Climbing Boston Center
12:33PM 41.6597 -73.6678 355° North 413 475 31,900 300 Climbing Boston Center
12:34PM 41.7756 -73.6842 354° North 419 482 32,100  Climbing Boston Center
12:35PM 41.9000 -73.6664 North 457 526 32,000 -60 Descending Boston Center
12:36PM 42.0236 -73.5433 36° Northeast 472 543 32,000 -840 Level Boston Center
12:37PM 42.1056 -73.4117 50° Northeast 480 552 30,400 -1,920 Descending Boston Center
12:38PM 42.1956 -73.2683 50° Northeast 480 552 28,200 -2,040 Descending Boston Center
12:39PM 42.2767 -73.1381 50° Northeast 461 531 26,200 -1,980 Descending Boston Center
12:40PM 42.3544 -73.0142 50° Northeast 444 511 24,200 -1,920 Descending Boston Center
12:41PM 42.4261 -72.8992 50° Northeast 420 483 22,300 -1,980 Descending Boston Center
12:42PM 42.4808 -72.7644 61° Northeast 411 473 20,300 -2,040 Descending Boston Center
12:43PM 42.5408 -72.6178 61° Northeast 390 449 18,200 -1,800 Descending Boston Center
12:44PM 42.5897 -72.5008 60° Northeast 367 422 16,700 -1,680 Descending Boston Center
12:45PM 42.6386 -72.3817 61° Northeast 348 400 14,900 -1,740 Descending Boston Center
12:46PM 42.6856 -72.2658 61° Northeast 336 387 13,300 -1,560 Descending Boston Center
12:47PM 42.7303 -72.1547 61° Northeast 335 386 11,800 -1,500 Descending Boston Center
12:48PM 42.7744 -72.0461 61° Northeast 331 381 10,300 -1,380 Descending Boston Center
12:49PM 42.8117 -71.9400 64° Northeast 313 360 9,000 -1,800 Descending Boston Center
12:50PM 42.8114 -71.8219 90° East 290 334 6,700 -2,160 Descending Boston Center
12:51PM 42.8133 -71.7211 88° East 267 307 4,600 -1,740 Descending Boston Center
12:52PM 42.8158 -71.6294 88° East 242 278 3,300 -1,020 Descending Boston Center
12:53PM 42.8378 -71.5614 66° East 204 235 2,600 -720 Descending Boston Center
12:54PM 42.8767 -71.5119 43° Northeast 180 207 1,900 -780 Descending Boston Center
12:55PM 42.9042 -71.4781 42° Northeast 140 161 1,100 -720 Descending Boston Center
12:56PM 42.9322 -71.4433 42° Northeast 131 151 500 -600 Descending Boston Center